SAS202 ESSA-EFHK
Flight info
| Callsign | SAS202 |
|---|---|
| Flight time | 0h 39m |
| Altitude | 29000 |
| Route | TOVRI N851 RIKUM DCT RIRIP Y364 LAKUT |
| Aircraft | B738/M-SDE2E3FGHIRWXY/LB1 |
Departure
| Time | 2026-04-23 18:03 |
|---|---|
| Airport | Stockholm-Arlanda Airport (ESSA) |
Arrival
| Time | 2026-04-23 18:43 |
|---|---|
| Airport | Helsinki Vantaa Airport (EFHK) |
| Time | Latitude | Longitude | Altitude | Speed | Heading |
|---|---|---|---|---|---|
| 2026-04-23 17:26 | 59.65399 | 17.93522 | 137 ft | 0 kts | 74° |
| 2026-04-23 17:47 | 59.65393 | 17.93482 | 137 ft | 2 kts | 74° |
| 2026-04-23 17:48 | 59.65389 | 17.93451 | 137 ft | 2 kts | 72° |
| 2026-04-23 17:48 | 59.65384 | 17.93420 | 137 ft | 2 kts | 72° |
| 2026-04-23 17:48 | 59.65378 | 17.93390 | 137 ft | 2 kts | 47° |
| 2026-04-23 17:48 | 59.65367 | 17.93377 | 137 ft | 1 kts | 355° |
| 2026-04-23 17:49 | 59.65365 | 17.93377 | 137 ft | 0 kts | 347° |
| 2026-04-23 17:53 | 59.65367 | 17.93377 | 137 ft | 1 kts | 347° |
| 2026-04-23 17:53 | 59.65392 | 17.93365 | 137 ft | 7 kts | 347° |
| 2026-04-23 17:53 | 59.65450 | 17.93342 | 137 ft | 9 kts | 351° |
| 2026-04-23 17:54 | 59.65512 | 17.93332 | 137 ft | 10 kts | 353° |
| 2026-04-23 17:54 | 59.65589 | 17.93303 | 137 ft | 13 kts | 349° |
| 2026-04-23 17:54 | 59.65646 | 17.93335 | 137 ft | 0 kts | 45° |
| 2026-04-23 17:55 | 59.65647 | 17.93337 | 137 ft | 0 kts | 45° |
| 2026-04-23 17:55 | 59.65649 | 17.93341 | 137 ft | 1 kts | 45° |
| 2026-04-23 17:56 | 59.65663 | 17.93370 | 137 ft | 4 kts | 45° |
| 2026-04-23 17:56 | 59.65675 | 17.93393 | 137 ft | 2 kts | 46° |
| 2026-04-23 17:56 | 59.65686 | 17.93417 | 137 ft | 3 kts | 46° |
| 2026-04-23 17:57 | 59.65699 | 17.93444 | 137 ft | 3 kts | 47° |
| 2026-04-23 17:57 | 59.65712 | 17.93471 | 137 ft | 3 kts | 46° |
| 2026-04-23 17:57 | 59.65723 | 17.93493 | 137 ft | 0 kts | 46° |
| 2026-04-23 18:00 | 59.65725 | 17.93499 | 137 ft | 3 kts | 46° |
| 2026-04-23 18:00 | 59.65772 | 17.93593 | 137 ft | 15 kts | 45° |
| 2026-04-23 18:00 | 59.65839 | 17.93684 | 137 ft | 6 kts | 28° |
| 2026-04-23 18:01 | 59.65858 | 17.93747 | 137 ft | 4 kts | 75° |
| 2026-04-23 18:01 | 59.65859 | 17.93750 | 137 ft | 0 kts | 75° |
| 2026-04-23 18:02 | 59.65859 | 17.93751 | 164 ft | 0 kts | 75° |
| 2026-04-23 18:03 | 59.65867 | 17.93815 | 136 ft | 18 kts | 76° |
| 2026-04-23 18:03 | 59.65975 | 17.94649 | 136 ft | 107 kts | 76° |
| 2026-04-23 18:03 | 59.66215 | 17.96559 | 244 ft | 170 kts | 76° |
| 2026-04-23 18:03 | 59.66486 | 17.98854 | 1146 ft | 170 kts | 72° |
| 2026-04-23 18:04 | 59.66764 | 18.01089 | 2282 ft | 171 kts | 71° |
| 2026-04-23 18:04 | 59.67075 | 18.03511 | 3079 ft | 189 kts | 70° |
| 2026-04-23 18:04 | 59.67392 | 18.06072 | 4053 ft | 197 kts | 70° |
| 2026-04-23 18:04 | 59.67704 | 18.08781 | 4838 ft | 208 kts | 71° |
| 2026-04-23 18:05 | 59.68020 | 18.11689 | 5348 ft | 226 kts | 71° |
| 2026-04-23 18:05 | 59.68350 | 18.14768 | 6040 ft | 235 kts | 71° |
| 2026-04-23 18:05 | 59.68724 | 18.18121 | 6337 ft | 265 kts | 71° |
| 2026-04-23 18:05 | 59.69136 | 18.21803 | 7041 ft | 278 kts | 70° |
| 2026-04-23 18:06 | 59.69807 | 18.25364 | 8123 ft | 273 kts | 59° |
| 2026-04-23 18:06 | 59.70641 | 18.28748 | 9264 ft | 274 kts | 57° |
| 2026-04-23 18:06 | 59.71509 | 18.32132 | 10264 ft | 278 kts | 57° |
| 2026-04-23 18:06 | 59.72419 | 18.35683 | 10704 ft | 304 kts | 58° |
| 2026-04-23 18:07 | 59.73409 | 18.39612 | 10955 ft | 332 kts | 58° |
| 2026-04-23 18:07 | 59.74447 | 18.43829 | 11598 ft | 345 kts | 59° |
| 2026-04-23 18:07 | 59.75477 | 18.48098 | 12468 ft | 350 kts | 59° |
| 2026-04-23 18:07 | 59.76526 | 18.52489 | 13382 ft | 355 kts | 59° |
| 2026-04-23 18:08 | 59.77242 | 18.55499 | 13951 ft | 359 kts | 59° |
| 2026-04-23 18:08 | 59.78659 | 18.61479 | 15055 ft | 362 kts | 58° |
| 2026-04-23 18:08 | 59.79731 | 18.66017 | 15965 ft | 363 kts | 58° |
| 2026-04-23 18:08 | 59.80804 | 18.70570 | 16825 ft | 365 kts | 58° |
| 2026-04-23 18:09 | 59.81886 | 18.75166 | 17659 ft | 368 kts | 58° |
| 2026-04-23 18:09 | 59.82977 | 18.79806 | 18454 ft | 371 kts | 58° |
| 2026-04-23 18:09 | 59.84074 | 18.84483 | 19152 ft | 375 kts | 57° |
| 2026-04-23 18:09 | 59.85179 | 18.89204 | 19828 ft | 378 kts | 57° |
| 2026-04-23 18:10 | 59.86290 | 18.93964 | 20508 ft | 381 kts | 57° |
| 2026-04-23 18:10 | 59.87409 | 18.98768 | 21167 ft | 384 kts | 57° |
| 2026-04-23 18:10 | 59.88535 | 19.03616 | 21819 ft | 388 kts | 57° |
| 2026-04-23 18:10 | 59.89670 | 19.08509 | 22467 ft | 391 kts | 57° |
| 2026-04-23 18:11 | 59.90811 | 19.13448 | 23099 ft | 394 kts | 57° |
| 2026-04-23 18:11 | 59.91958 | 19.18420 | 23692 ft | 397 kts | 57° |
| 2026-04-23 18:11 | 59.93112 | 19.23439 | 24199 ft | 400 kts | 57° |
| 2026-04-23 18:11 | 59.94277 | 19.28504 | 24692 ft | 403 kts | 57° |
| 2026-04-23 18:12 | 59.95450 | 19.33615 | 25175 ft | 406 kts | 57° |
| 2026-04-23 18:12 | 59.96624 | 19.38768 | 25644 ft | 410 kts | 58° |
| 2026-04-23 18:12 | 59.97570 | 19.44225 | 26083 ft | 424 kts | 66° |
| 2026-04-23 18:12 | 59.98278 | 19.49962 | 26543 ft | 427 kts | 67° |
| 2026-04-23 18:13 | 59.98973 | 19.55761 | 26986 ft | 431 kts | 67° |
| 2026-04-23 18:13 | 59.99659 | 19.61530 | 27413 ft | 433 kts | 67° |
| 2026-04-23 18:13 | 60.00358 | 19.67407 | 27840 ft | 436 kts | 67° |
| 2026-04-23 18:13 | 60.01062 | 19.73319 | 28286 ft | 438 kts | 67° |
| 2026-04-23 18:14 | 60.01767 | 19.79247 | 28823 ft | 437 kts | 67° |
| 2026-04-23 18:14 | 60.03183 | 19.91152 | 28939 ft | 439 kts | 67° |
| 2026-04-23 18:15 | 60.04569 | 20.02935 | 28951 ft | 434 kts | 67° |
| 2026-04-23 18:15 | 60.05954 | 20.14727 | 28957 ft | 435 kts | 67° |
| 2026-04-23 18:16 | 60.07325 | 20.26502 | 28960 ft | 437 kts | 67° |
| 2026-04-23 18:16 | 60.08693 | 20.38375 | 28960 ft | 437 kts | 67° |
| 2026-04-23 18:17 | 60.10719 | 20.56161 | 28960 ft | 435 kts | 67° |
| 2026-04-23 18:17 | 60.12053 | 20.67995 | 28958 ft | 434 kts | 67° |
| 2026-04-23 18:18 | 60.13366 | 20.79744 | 28957 ft | 433 kts | 67° |
| 2026-04-23 18:18 | 60.14672 | 20.91529 | 28946 ft | 432 kts | 67° |
| 2026-04-23 18:19 | 60.15966 | 21.03306 | 28955 ft | 432 kts | 67° |
| 2026-04-23 18:19 | 60.17247 | 21.15085 | 28950 ft | 432 kts | 67° |
| 2026-04-23 18:20 | 60.18520 | 21.26894 | 28957 ft | 432 kts | 67° |
| 2026-04-23 18:20 | 60.19785 | 21.38700 | 28954 ft | 433 kts | 67° |
| 2026-04-23 18:21 | 60.20438 | 21.50881 | 28962 ft | 447 kts | 77° |
| 2026-04-23 18:21 | 60.20550 | 21.63407 | 28926 ft | 449 kts | 78° |
| 2026-04-23 18:22 | 60.20595 | 21.69717 | 28287 ft | 450 kts | 78° |
| 2026-04-23 18:22 | 60.20638 | 21.75957 | 27684 ft | 443 kts | 78° |
| 2026-04-23 18:22 | 60.20668 | 21.80030 | 27302 ft | 438 kts | 78° |
| 2026-04-23 18:22 | 60.20718 | 21.86119 | 26699 ft | 433 kts | 78° |
| 2026-04-23 18:23 | 60.20771 | 21.92144 | 26108 ft | 428 kts | 78° |
| 2026-04-23 18:23 | 60.20878 | 22.03995 | 24947 ft | 420 kts | 78° |
| 2026-04-23 18:24 | 60.20977 | 22.15645 | 23785 ft | 414 kts | 78° |
| 2026-04-23 18:24 | 60.21023 | 22.21345 | 23165 ft | 411 kts | 78° |
| 2026-04-23 18:24 | 60.21065 | 22.27080 | 22529 ft | 408 kts | 78° |
| 2026-04-23 18:25 | 60.21139 | 22.38380 | 21364 ft | 400 kts | 79° |
| 2026-04-23 18:25 | 60.21172 | 22.43955 | 20801 ft | 397 kts | 79° |
| 2026-04-23 18:25 | 60.21202 | 22.49475 | 20249 ft | 393 kts | 79° |
| 2026-04-23 18:25 | 60.21231 | 22.54961 | 19701 ft | 390 kts | 79° |
| 2026-04-23 18:26 | 60.21258 | 22.60407 | 19160 ft | 388 kts | 79° |
| 2026-04-23 18:26 | 60.21282 | 22.65815 | 18608 ft | 386 kts | 79° |
| 2026-04-23 18:26 | 60.21305 | 22.71213 | 18024 ft | 385 kts | 80° |
| 2026-04-23 18:26 | 60.21323 | 22.76582 | 17419 ft | 383 kts | 80° |
| 2026-04-23 18:27 | 60.21340 | 22.81911 | 16854 ft | 380 kts | 81° |
| 2026-04-23 18:27 | 60.21354 | 22.87196 | 16297 ft | 376 kts | 81° |
| 2026-04-23 18:27 | 60.21365 | 22.92442 | 15757 ft | 373 kts | 81° |
| 2026-04-23 18:27 | 60.21375 | 22.97638 | 15222 ft | 370 kts | 81° |
| 2026-04-23 18:28 | 60.21383 | 23.02804 | 14699 ft | 368 kts | 82° |
| 2026-04-23 18:28 | 60.21389 | 23.07937 | 14176 ft | 365 kts | 82° |
| 2026-04-23 18:28 | 60.21393 | 23.13022 | 13654 ft | 363 kts | 82° |
| 2026-04-23 18:28 | 60.21395 | 23.18018 | 13079 ft | 360 kts | 82° |
| 2026-04-23 18:29 | 60.21395 | 23.23108 | 12508 ft | 358 kts | 83° |
| 2026-04-23 18:29 | 60.21393 | 23.28029 | 11987 ft | 355 kts | 83° |
| 2026-04-23 18:29 | 60.21389 | 23.32966 | 11467 ft | 352 kts | 83° |
| 2026-04-23 18:29 | 60.21383 | 23.37864 | 10954 ft | 349 kts | 83° |
| 2026-04-23 18:30 | 60.21375 | 23.42720 | 10595 ft | 342 kts | 84° |
| 2026-04-23 18:30 | 60.21363 | 23.47395 | 10454 ft | 329 kts | 84° |
| 2026-04-23 18:30 | 60.21350 | 23.51912 | 10295 ft | 317 kts | 83° |
| 2026-04-23 18:30 | 60.21338 | 23.56271 | 10166 ft | 306 kts | 83° |
| 2026-04-23 18:31 | 60.21326 | 23.60482 | 10031 ft | 296 kts | 83° |
| 2026-04-23 18:31 | 60.21313 | 23.64564 | 9924 ft | 287 kts | 83° |
| 2026-04-23 18:31 | 60.21301 | 23.68512 | 9885 ft | 279 kts | 83° |
| 2026-04-23 18:31 | 60.21287 | 23.72380 | 9875 ft | 271 kts | 83° |
| 2026-04-23 18:32 | 60.21271 | 23.76080 | 9868 ft | 258 kts | 82° |
| 2026-04-23 18:32 | 60.21255 | 23.79562 | 9868 ft | 246 kts | 82° |
| 2026-04-23 18:32 | 60.21238 | 23.82963 | 9859 ft | 234 kts | 82° |
| 2026-04-23 18:32 | 60.21223 | 23.86127 | 9835 ft | 227 kts | 81° |
| 2026-04-23 18:33 | 60.21214 | 23.89360 | 9461 ft | 236 kts | 82° |
| 2026-04-23 18:33 | 60.21206 | 23.92746 | 9109 ft | 248 kts | 82° |
| 2026-04-23 18:33 | 60.21191 | 23.96277 | 8757 ft | 254 kts | 83° |
| 2026-04-23 18:33 | 60.21171 | 23.99836 | 8391 ft | 255 kts | 84° |
| 2026-04-23 18:34 | 60.21147 | 24.03393 | 8030 ft | 254 kts | 84° |
| 2026-04-23 18:34 | 60.21123 | 24.06942 | 7666 ft | 254 kts | 84° |
| 2026-04-23 18:34 | 60.21099 | 24.10484 | 7307 ft | 253 kts | 85° |
| 2026-04-23 18:34 | 60.21073 | 24.14017 | 6961 ft | 252 kts | 85° |
| 2026-04-23 18:35 | 60.21047 | 24.17542 | 6608 ft | 252 kts | 85° |
| 2026-04-23 18:35 | 60.21019 | 24.21043 | 6333 ft | 248 kts | 86° |
| 2026-04-23 18:35 | 60.20993 | 24.24496 | 6004 ft | 246 kts | 86° |
| 2026-04-23 18:35 | 60.20964 | 24.27923 | 5684 ft | 244 kts | 86° |
| 2026-04-23 18:36 | 60.20936 | 24.31308 | 5366 ft | 242 kts | 86° |
| 2026-04-23 18:36 | 60.20906 | 24.34668 | 5055 ft | 239 kts | 86° |
| 2026-04-23 18:36 | 60.20877 | 24.37950 | 4794 ft | 236 kts | 86° |
| 2026-04-23 18:36 | 60.20847 | 24.41252 | 4541 ft | 236 kts | 86° |
| 2026-04-23 18:37 | 60.20816 | 24.44557 | 4272 ft | 236 kts | 87° |
| 2026-04-23 18:37 | 60.20784 | 24.47867 | 4001 ft | 236 kts | 87° |
| 2026-04-23 18:37 | 60.20753 | 24.51155 | 3742 ft | 233 kts | 87° |
| 2026-04-23 18:37 | 60.20721 | 24.54410 | 3472 ft | 230 kts | 87° |
| 2026-04-23 18:38 | 60.20688 | 24.57607 | 3200 ft | 227 kts | 87° |
| 2026-04-23 18:38 | 60.20655 | 24.60752 | 2943 ft | 224 kts | 87° |
| 2026-04-23 18:38 | 60.20623 | 24.63822 | 2681 ft | 221 kts | 87° |
| 2026-04-23 18:38 | 60.20807 | 24.66824 | 2408 ft | 212 kts | 63° |
| 2026-04-23 18:39 | 60.21649 | 24.69072 | 2321 ft | 195 kts | 42° |
| 2026-04-23 18:39 | 60.22537 | 24.71009 | 2309 ft | 181 kts | 44° |
| 2026-04-23 18:39 | 60.23369 | 24.72843 | 2310 ft | 173 kts | 44° |
| 2026-04-23 18:39 | 60.24163 | 24.74601 | 2253 ft | 166 kts | 43° |
| 2026-04-23 18:40 | 60.24926 | 24.76290 | 2067 ft | 159 kts | 43° |
| 2026-04-23 18:40 | 60.25656 | 24.77905 | 1853 ft | 151 kts | 43° |
| 2026-04-23 18:40 | 60.26333 | 24.79407 | 1677 ft | 138 kts | 43° |
| 2026-04-23 18:40 | 60.26967 | 24.80806 | 1482 ft | 133 kts | 43° |
| 2026-04-23 18:41 | 60.27599 | 24.82201 | 1278 ft | 134 kts | 43° |
| 2026-04-23 18:41 | 60.28225 | 24.83585 | 1080 ft | 134 kts | 44° |
| 2026-04-23 18:41 | 60.28822 | 24.84940 | 871 ft | 126 kts | 45° |
| 2026-04-23 18:41 | 60.29400 | 24.86304 | 744 ft | 130 kts | 44° |
| 2026-04-23 18:42 | 60.30035 | 24.87662 | 572 ft | 135 kts | 44° |
| 2026-04-23 18:42 | 60.30682 | 24.89069 | 373 ft | 138 kts | 44° |
| 2026-04-23 18:42 | 60.31336 | 24.90495 | 199 ft | 138 kts | 43° |
| 2026-04-23 18:42 | 60.31936 | 24.91791 | 158 ft | 114 kts | 48° |
| 2026-04-23 18:43 | 60.32390 | 24.92794 | 169 ft | 71 kts | 48° |
| 2026-04-23 18:43 | 60.32677 | 24.93422 | 177 ft | 57 kts | 47° |
| 2026-04-23 18:43 | 60.32918 | 24.93952 | 182 ft | 46 kts | 47° |
| 2026-04-23 18:43 | 60.33087 | 24.94333 | 192 ft | 22 kts | 51° |
| 2026-04-23 18:44 | 60.33116 | 24.94507 | 189 ft | 0 kts | 89° |
| 2026-04-23 18:44 | 60.33116 | 24.94518 | 189 ft | 0 kts | 89° |
| 2026-04-23 18:46 | 60.33117 | 24.94541 | 189 ft | 5 kts | 86° |
| 2026-04-23 18:47 | 60.33117 | 24.94692 | 187 ft | 15 kts | 91° |
| 2026-04-23 18:47 | 60.33113 | 24.94919 | 182 ft | 17 kts | 92° |
| 2026-04-23 18:47 | 60.33118 | 24.95171 | 181 ft | 19 kts | 75° |
| 2026-04-23 18:47 | 60.33192 | 24.95376 | 178 ft | 17 kts | 58° |
| 2026-04-23 18:48 | 60.33164 | 24.95590 | 175 ft | 17 kts | 136° |
| 2026-04-23 18:48 | 60.33078 | 24.95748 | 173 ft | 17 kts | 139° |
| 2026-04-23 18:48 | 60.32973 | 24.95880 | 172 ft | 19 kts | 150° |
| 2026-04-23 18:48 | 60.32850 | 24.96026 | 170 ft | 21 kts | 149° |
| 2026-04-23 18:49 | 60.32723 | 24.96175 | 167 ft | 21 kts | 149° |
| 2026-04-23 18:49 | 60.32598 | 24.96321 | 164 ft | 20 kts | 150° |
| 2026-04-23 18:49 | 60.32476 | 24.96463 | 162 ft | 20 kts | 149° |
| 2026-04-23 18:49 | 60.32358 | 24.96602 | 163 ft | 17 kts | 150° |
| 2026-04-23 18:50 | 60.32316 | 24.96650 | 163 ft | 0 kts | 150° |
| 2026-04-23 18:51 | 60.32305 | 24.96663 | 163 ft | 5 kts | 150° |
| 2026-04-23 18:51 | 60.32249 | 24.96726 | 163 ft | 12 kts | 151° |
| 2026-04-23 18:51 | 60.32171 | 24.96817 | 163 ft | 13 kts | 149° |
| 2026-04-23 18:52 | 60.32087 | 24.96917 | 162 ft | 15 kts | 149° |
| 2026-04-23 18:52 | 60.31990 | 24.97023 | 162 ft | 14 kts | 153° |
| 2026-04-23 18:52 | 60.31952 | 24.97062 | 162 ft | 0 kts | 152° |
| 2026-04-23 18:52 | 60.31948 | 24.97067 | 161 ft | 2 kts | 153° |
| 2026-04-23 18:53 | 60.31923 | 24.97093 | 161 ft | 2 kts | 153° |
| 2026-04-23 18:53 | 60.31914 | 24.97101 | 161 ft | 0 kts | 153° |
| 2026-04-23 18:53 | 60.31901 | 24.97114 | 161 ft | 5 kts | 153° |
| 2026-04-23 18:53 | 60.31860 | 24.97151 | 161 ft | 5 kts | 172° |
| 2026-04-23 18:54 | 60.31846 | 24.97142 | 161 ft | 0 kts | 221° |
| 2026-04-23 18:54 | 60.31844 | 24.97132 | 161 ft | 2 kts | 243° |
| 2026-04-23 18:54 | 60.31831 | 24.97080 | 161 ft | 5 kts | 243° |
| 2026-04-23 18:54 | 60.31828 | 24.97066 | 161 ft | 0 kts | 243° |